Ayrshire, Iowa
Current Conditions -  °F | °C
As of 10:53 AM on Thursday 18 Dec 2014 (Local Time) from KSPW Reporting Station
Overcast Overcast  
Wind Chill: 13°   Ceiling: 7500
Heat Index: 22°   Visibility: 10mi
Dew Point: 16°   Wind: 7mph
Humidity: 78%   Direction: 140°SE
Pressure: 30.25"   Gusts: NA
Location:  43.04°N, 94.83°W
Report Text: KSPW 181653Z AUTO 14006KT 10SM OVC075 M06/M09 A3025 RMK AO2 SLP268 T10561089 TSNO
Loading
Personal Weather Stations






























Interactive Weather Map New forecast layout! Learn more

10-Day Weather Forecast

Advertisements
Track Severe Weather on mobile